createdAt,value
2023-01-07T00:00:37.834Z,97.63
2023-01-07T00:03:41.073Z,97.02
2023-01-07T00:06:44.568Z,97.05
2023-01-07T00:09:46.774Z,96.72
2023-01-07T00:12:49.073Z,96.17
2023-01-07T00:15:51.318Z,96.60
2023-01-07T00:18:54.905Z,97.41
2023-01-07T00:21:57.137Z,98.14
2023-01-07T00:24:59.360Z,98.43
2023-01-07T00:28:01.897Z,98.73
2023-01-07T00:31:07.388Z,99.35
2023-01-07T00:34:10.244Z,99.96
2023-01-07T00:37:38.149Z,99.95
2023-01-07T00:40:40.373Z,99.77
2023-01-07T00:43:42.587Z,98.91
2023-01-07T00:46:44.872Z,98.73
2023-01-07T00:49:47.189Z,99.06
2023-01-07T00:52:50.413Z,98.89
2023-01-07T00:55:52.754Z,99.33
2023-01-07T00:58:55.009Z,99.45
2023-01-07T01:02:01.268Z,98.90
2023-01-07T01:05:05.202Z,98.60
2023-01-07T01:08:07.809Z,98.13
2023-01-07T01:11:11.636Z,98.71
2023-01-07T01:14:13.884Z,99.56
2023-01-07T01:17:16.123Z,99.84
2023-01-07T01:20:19.076Z,99.89
2023-01-07T01:23:21.800Z,99.99
2023-01-07T01:26:24.049Z,99.99
2023-01-07T01:29:26.372Z,99.99
2023-01-07T01:32:29.214Z,99.99
2023-01-07T01:35:31.740Z,99.99
2023-01-07T01:38:34.197Z,99.99
2023-01-07T01:41:36.842Z,99.99
2023-01-07T01:44:55.283Z,99.99
2023-01-07T01:48:07.083Z,99.97
2023-01-07T01:51:11.132Z,99.99
2023-01-07T01:54:16.239Z,99.98
2023-01-07T01:57:23.192Z,99.84
2023-01-07T02:00:29.703Z,98.91
2023-01-07T02:03:34.535Z,98.89
2023-01-07T02:06:43.871Z,99.99
2023-01-07T02:10:15.571Z,99.99
2023-01-07T02:13:37.075Z,99.84
2023-01-07T02:17:05.622Z,99.91
2023-01-07T02:20:25.912Z,99.02
2023-01-07T02:24:12.834Z,99.07
2023-01-07T02:27:27.134Z,98.71
2023-01-07T02:30:35.611Z,98.68
2023-01-07T02:34:05.094Z,99.99
2023-01-07T02:37:15.721Z,99.73
2023-01-07T02:40:50.487Z,99.09
2023-01-07T02:43:55.156Z,99.73
2023-01-07T02:46:59.479Z,99.99
2023-01-07T02:50:01.981Z,99.99
2023-01-07T02:53:08.580Z,99.99
2023-01-07T02:56:16.506Z,99.99
2023-01-07T02:59:22.246Z,99.99
2023-01-07T03:02:48.627Z,99.96
2023-01-07T03:05:53.610Z,99.36
2023-01-07T03:09:16.050Z,98.95
2023-01-07T03:12:29.632Z,99.21
2023-01-07T03:15:56.942Z,99.58
2023-01-07T03:19:36.442Z,99.38
2023-01-07T03:22:43.136Z,99.24
2023-01-07T03:25:50.151Z,98.98
2023-01-07T03:28:55.857Z,99.22
2023-01-07T03:32:14.373Z,98.94
2023-01-07T03:35:18.935Z,97.48
2023-01-07T03:38:23.516Z,97.07
2023-01-07T03:41:45.768Z,96.55
2023-01-07T03:44:49.098Z,96.31
2023-01-07T03:47:55.550Z,96.70
2023-01-07T03:50:59.656Z,97.02
2023-01-07T03:54:01.863Z,97.30
2023-01-07T03:57:04.327Z,97.07
2023-01-07T04:00:09.086Z,97.98
2023-01-07T04:03:16.759Z,98.39
2023-01-07T04:06:21.673Z,98.53
2023-01-07T04:09:24.066Z,98.56
2023-01-07T04:12:26.450Z,98.46
2023-01-07T04:15:34.853Z,98.01
2023-01-07T04:18:38.461Z,97.70
2023-01-07T04:21:41.243Z,98.60
2023-01-07T04:24:43.628Z,99.40
2023-01-07T04:27:48.702Z,98.84
2023-01-07T04:30:51.454Z,99.47
2023-01-07T04:34:01.109Z,99.99
2023-01-07T04:37:03.442Z,99.89
2023-01-07T04:40:06.709Z,99.04
2023-01-07T04:43:11.255Z,99.44
2023-01-07T04:46:13.619Z,99.53
2023-01-07T04:49:16.054Z,99.99
2023-01-07T04:52:18.744Z,99.91
2023-01-07T04:55:21.622Z,99.99
2023-01-07T04:58:24.102Z,99.99
2023-01-07T05:01:27.823Z,99.99
2023-01-07T05:04:30.559Z,99.99
2023-01-07T05:07:33.289Z,99.99
2023-01-07T05:10:36.111Z,99.99
2023-01-07T05:13:40.244Z,99.73
2023-01-07T05:16:43.148Z,99.41
2023-01-07T05:19:47.152Z,99.58
2023-01-07T05:22:50.364Z,99.53
2023-01-07T05:25:54.305Z,99.93
2023-01-07T05:28:59.401Z,99.99
2023-01-07T05:32:02.490Z,99.99
2023-01-07T05:35:05.315Z,99.99
2023-01-07T05:38:07.716Z,99.99
2023-01-07T05:41:10.121Z,99.99
2023-01-07T05:44:12.577Z,99.99
2023-01-07T05:47:14.827Z,99.99
2023-01-07T05:50:17.188Z,99.99
2023-01-07T05:53:19.522Z,99.99
2023-01-07T05:56:22.033Z,99.99
2023-01-07T05:59:24.264Z,99.99
2023-01-07T06:02:26.533Z,99.99
2023-01-07T06:05:28.788Z,99.99
2023-01-07T06:08:30.979Z,99.99
2023-01-07T06:11:33.153Z,99.99
2023-01-07T06:14:35.431Z,99.99
2023-01-07T06:17:37.696Z,99.99
2023-01-07T06:20:40.001Z,99.99
2023-01-07T06:23:43.508Z,99.99
2023-01-07T06:26:45.829Z,99.99
2023-01-07T06:29:48.023Z,99.99
2023-01-07T06:32:50.283Z,99.68
2023-01-07T06:35:52.521Z,99.59
2023-01-07T06:38:54.733Z,99.60
2023-01-07T06:41:56.977Z,99.23
2023-01-07T06:44:59.279Z,99.27
2023-01-07T06:48:01.872Z,99.15
2023-01-07T06:51:04.211Z,99.03
2023-01-07T06:54:07.619Z,99.28
2023-01-07T06:57:09.852Z,99.57
2023-01-07T07:00:12.555Z,99.46
2023-01-07T07:03:14.849Z,99.13
2023-01-07T07:06:17.129Z,98.63
2023-01-07T07:09:19.404Z,96.81
2023-01-07T07:12:21.598Z,95.17
2023-01-07T07:15:23.838Z,94.95
2023-01-07T07:18:27.046Z,93.72
2023-01-07T07:21:29.374Z,93.55
2023-01-07T07:24:31.634Z,92.83
2023-01-07T07:27:33.875Z,92.62
2023-01-07T07:30:47.359Z,91.62
2023-01-07T07:33:50.401Z,91.49
2023-01-07T07:36:52.619Z,90.54
2023-01-07T07:39:54.831Z,89.64
2023-01-07T07:43:10.637Z,88.75
2023-01-07T07:46:15.426Z,88.17
2023-01-07T07:49:17.799Z,87.82
2023-01-07T07:52:20.085Z,87.32
2023-01-07T07:55:26.108Z,86.14
2023-01-07T07:58:28.806Z,84.28
2023-01-07T08:01:31.098Z,81.50
2023-01-07T08:04:34.949Z,80.17
2023-01-07T08:07:37.814Z,74.92
2023-01-07T08:10:40.640Z,74.30
2023-01-07T08:13:42.832Z,77.65
2023-01-07T08:16:45.115Z,77.61
2023-01-07T08:19:47.363Z,77.06
2023-01-07T08:22:49.648Z,76.85
2023-01-07T08:25:51.824Z,75.74
2023-01-07T08:28:54.416Z,74.53
2023-01-07T08:31:58.581Z,71.39
2023-01-07T08:35:00.850Z,71.05
2023-01-07T08:38:05.599Z,73.10
2023-01-07T08:41:07.904Z,73.03
2023-01-07T08:44:10.144Z,71.15
2023-01-07T08:47:12.400Z,69.78
2023-01-07T08:50:14.773Z,65.34
2023-01-07T08:53:17.012Z,62.22
2023-01-07T08:56:19.288Z,59.77
2023-01-07T08:59:21.530Z,60.74
2023-01-07T09:02:23.755Z,61.02
2023-01-07T09:05:26.020Z,59.69
2023-01-07T09:08:28.286Z,59.28
2023-01-07T09:11:30.539Z,59.40
2023-01-07T09:14:32.775Z,60.17
2023-01-07T09:17:35.061Z,61.20
2023-01-07T09:20:37.343Z,63.85
2023-01-07T09:23:40.489Z,64.12
2023-01-07T09:26:43.646Z,62.50
2023-01-07T09:29:45.981Z,63.43
2023-01-07T09:32:55.284Z,59.15
2023-01-07T09:35:57.498Z,59.35
2023-01-07T09:38:59.921Z,59.98
2023-01-07T09:42:09.284Z,62.48
2023-01-07T09:45:14.381Z,64.46
2023-01-07T09:48:31.724Z,64.44
2023-01-07T09:51:39.059Z,66.61
2023-01-07T09:54:42.059Z,67.06
2023-01-07T09:57:44.404Z,64.64
2023-01-07T10:01:37.782Z,67.22
2023-01-07T10:04:56.274Z,65.81
2023-01-07T10:08:29.910Z,63.57
2023-01-07T10:11:55.552Z,60.32
2023-01-07T10:15:07.871Z,59.99
2023-01-07T10:18:42.863Z,59.13
2023-01-07T10:21:55.701Z,55.51
2023-01-07T10:25:03.019Z,52.96
2023-01-07T10:28:10.937Z,51.94
2023-01-07T10:31:19.892Z,52.65
2023-01-07T10:34:34.444Z,51.67
2023-01-07T10:37:39.525Z,52.77
2023-01-07T10:40:44.135Z,55.85
2023-01-07T10:44:10.386Z,55.66
2023-01-07T10:47:50.562Z,53.83
2023-01-07T10:50:52.785Z,52.79
2023-01-07T10:54:13.009Z,50.97
2023-01-07T10:57:19.935Z,50.09
2023-01-07T11:00:24.219Z,48.21
2023-01-07T11:03:26.844Z,45.44
2023-01-07T11:06:49.355Z,46.69
2023-01-07T11:09:53.558Z,45.45
2023-01-07T11:13:00.041Z,44.33
2023-01-07T11:16:17.482Z,42.23
2023-01-07T11:19:22.357Z,43.17
2023-01-07T11:22:27.499Z,41.30
2023-01-07T11:25:29.876Z,41.00
2023-01-07T11:28:33.623Z,40.62
2023-01-07T11:32:03.936Z,40.33
2023-01-07T11:35:23.302Z,40.04
2023-01-07T11:38:33.970Z,39.84
2023-01-07T11:41:36.206Z,39.64
2023-01-07T11:44:38.448Z,40.27
2023-01-07T11:47:47.014Z,40.01
2023-01-07T11:51:05.228Z,39.35
2023-01-07T11:54:20.658Z,38.80
2023-01-07T11:57:25.548Z,38.48
2023-01-07T12:00:31.482Z,39.73
2023-01-07T12:03:38.235Z,39.45
2023-01-07T12:06:44.414Z,39.75
2023-01-07T12:09:46.935Z,38.84
2023-01-07T12:12:49.218Z,41.91
2023-01-07T12:16:02.055Z,43.97
2023-01-07T12:19:32.900Z,41.29
2023-01-07T12:22:46.013Z,43.62
2023-01-07T12:25:54.146Z,42.04
2023-01-07T12:28:59.335Z,42.51
2023-01-07T12:32:07.684Z,43.22
2023-01-07T12:35:18.183Z,43.27
2023-01-07T12:38:40.633Z,42.63
2023-01-07T12:41:50.356Z,46.33
2023-01-07T12:45:01.712Z,45.04
2023-01-07T12:48:07.824Z,45.63
2023-01-07T12:51:24.848Z,46.54
2023-01-07T12:54:44.490Z,47.21
2023-01-07T12:58:03.553Z,47.72
2023-01-07T13:01:35.804Z,48.47
2023-01-07T13:04:55.680Z,49.18
2023-01-07T13:08:04.096Z,47.83
2023-01-07T13:11:20.339Z,47.92
2023-01-07T13:14:27.413Z,48.75
2023-01-07T13:17:31.469Z,47.38
2023-01-07T13:20:41.136Z,46.69
2023-01-07T13:24:20.516Z,47.92
2023-01-07T13:28:13.980Z,48.64
2023-01-07T13:31:46.449Z,51.32
2023-01-07T13:34:51.388Z,50.68
2023-01-07T13:38:08.622Z,49.93
2023-01-07T13:41:16.959Z,50.39
2023-01-07T13:44:40.851Z,50.08
2023-01-07T13:48:00.731Z,53.36
2023-01-07T13:51:06.143Z,53.24
2023-01-07T13:54:11.686Z,54.15
2023-01-07T13:57:26.311Z,53.08
2023-01-07T14:00:47.991Z,54.52
2023-01-07T14:03:51.049Z,54.47
2023-01-07T14:06:53.368Z,55.39
2023-01-07T14:09:57.352Z,55.85
2023-01-07T14:13:33.678Z,56.82
2023-01-07T14:16:46.665Z,56.65
2023-01-07T14:20:02.373Z,57.37
2023-01-07T14:23:16.309Z,59.05
2023-01-07T14:27:01.940Z,60.94
2023-01-07T14:30:20.912Z,64.66
2023-01-07T14:33:26.516Z,66.07
2023-01-07T14:36:59.736Z,67.60
2023-01-07T14:40:30.830Z,69.07
2023-01-07T14:43:47.750Z,69.93
2023-01-07T14:46:50.690Z,71.21
2023-01-07T14:50:00.945Z,72.01
2023-01-07T14:53:37.433Z,73.31
2023-01-07T14:56:48.647Z,74.04
2023-01-07T15:00:05.762Z,75.26
2023-01-07T15:03:50.898Z,76.84
2023-01-07T15:06:57.206Z,78.55
2023-01-07T15:10:23.827Z,79.48
2023-01-07T15:13:45.905Z,80.31
2023-01-07T15:16:55.456Z,81.19
2023-01-07T15:19:59.368Z,81.71
2023-01-07T15:23:06.568Z,81.93
2023-01-07T15:26:28.667Z,82.63
2023-01-07T15:29:45.878Z,84.40
2023-01-07T15:33:32.445Z,85.29
2023-01-07T15:36:40.753Z,86.48
2023-01-07T15:39:52.083Z,86.80
2023-01-07T15:42:57.761Z,87.66
2023-01-07T15:46:03.170Z,87.48
2023-01-07T15:49:11.058Z,88.12
2023-01-07T15:52:23.504Z,89.48
2023-01-07T15:55:28.844Z,90.82
2023-01-07T15:58:39.968Z,89.72
2023-01-07T16:01:50.841Z,90.72
2023-01-07T16:04:56.197Z,89.71
2023-01-07T16:08:00.674Z,89.40
2023-01-07T16:11:19.889Z,89.57
2023-01-07T16:14:24.848Z,90.25
2023-01-07T16:17:27.456Z,90.46
2023-01-07T16:20:39.002Z,90.74
2023-01-07T16:23:41.561Z,91.10
2023-01-07T16:26:47.152Z,91.81
2023-01-07T16:29:54.477Z,91.79
2023-01-07T16:32:57.474Z,92.77
2023-01-07T16:36:02.509Z,93.51
2023-01-07T16:39:15.284Z,93.01
2023-01-07T16:42:27.307Z,93.05
2023-01-07T16:45:32.605Z,91.94
2023-01-07T16:48:34.918Z,91.68
2023-01-07T16:51:41.765Z,92.10
2023-01-07T16:54:48.398Z,92.74
2023-01-07T16:57:50.685Z,93.43
2023-01-07T17:00:55.307Z,93.27
2023-01-07T17:04:01.055Z,93.53
2023-01-07T17:07:03.911Z,93.48
2023-01-07T17:10:07.068Z,93.84
2023-01-07T17:13:15.029Z,94.04
2023-01-07T17:16:28.321Z,94.67
2023-01-07T17:19:42.071Z,93.91
2023-01-07T17:22:45.286Z,93.90
2023-01-07T17:25:48.648Z,94.21
2023-01-07T17:29:13.229Z,94.15
2023-01-07T17:32:15.893Z,94.27
2023-01-07T17:35:23.873Z,94.19
2023-01-07T17:38:26.101Z,94.73
2023-01-07T17:41:47.097Z,95.14
2023-01-07T17:44:49.740Z,94.88
2023-01-07T17:47:52.894Z,95.16
2023-01-07T17:50:57.984Z,95.27
2023-01-07T17:54:00.304Z,95.29
2023-01-07T17:57:02.580Z,95.37
2023-01-07T18:00:05.392Z,95.30
2023-01-07T18:03:15.138Z,95.47
2023-01-07T18:06:20.917Z,95.59
2023-01-07T18:09:23.144Z,95.79
2023-01-07T18:12:31.776Z,95.44
2023-01-07T18:15:34.035Z,95.81
2023-01-07T18:18:36.314Z,96.23
2023-01-07T18:21:38.551Z,96.34
2023-01-07T18:24:40.830Z,95.95
2023-01-07T18:27:43.284Z,96.65
2023-01-07T18:30:45.511Z,96.80
2023-01-07T18:33:48.491Z,96.58
2023-01-07T18:36:50.928Z,96.45
2023-01-07T18:39:53.113Z,96.40
2023-01-07T18:42:56.569Z,96.37
2023-01-07T18:45:58.845Z,96.40
2023-01-07T18:49:01.178Z,96.36
2023-01-07T18:52:03.405Z,96.13
2023-01-07T18:55:06.464Z,95.33
2023-01-07T18:58:12.122Z,95.56
2023-01-07T19:01:14.448Z,95.29
2023-01-07T19:04:16.802Z,96.64
2023-01-07T19:07:19.261Z,97.43
2023-01-07T19:10:22.463Z,96.13
2023-01-07T19:13:24.701Z,96.11
2023-01-07T19:16:27.076Z,97.01
2023-01-07T19:19:34.265Z,97.03
2023-01-07T19:22:46.669Z,96.37
2023-01-07T19:26:04.423Z,97.21
2023-01-07T19:29:06.838Z,97.31
2023-01-07T19:32:09.897Z,97.16
2023-01-07T19:35:12.784Z,97.93
2023-01-07T19:38:15.005Z,98.37
2023-01-07T19:41:19.174Z,97.91
2023-01-07T19:44:21.418Z,99.28
2023-01-07T19:47:23.832Z,98.89
2023-01-07T19:50:26.087Z,98.61
2023-01-07T19:53:30.069Z,98.15
2023-01-07T19:56:33.285Z,98.80
2023-01-07T19:59:36.184Z,98.48
2023-01-07T20:02:38.481Z,99.55
2023-01-07T20:05:40.722Z,99.92
2023-01-07T20:08:43.310Z,98.79
2023-01-07T20:11:45.900Z,98.32
2023-01-07T20:14:48.686Z,98.26
2023-01-07T20:17:50.930Z,98.35
2023-01-07T20:21:00.106Z,98.90
2023-01-07T20:24:06.256Z,98.73
2023-01-07T20:27:08.487Z,98.82
2023-01-07T20:30:11.343Z,98.60
2023-01-07T20:33:13.805Z,98.17
2023-01-07T20:36:18.482Z,98.58
2023-01-07T20:39:20.751Z,99.39
2023-01-07T20:42:23.273Z,99.87
2023-01-07T20:45:25.470Z,99.41
2023-01-07T20:48:27.937Z,98.92
2023-01-07T20:51:30.292Z,98.91
2023-01-07T20:54:32.556Z,99.25
2023-01-07T20:57:34.764Z,99.99
2023-01-07T21:00:39.817Z,99.99
2023-01-07T21:03:43.428Z,99.99
2023-01-07T21:06:45.672Z,99.99
2023-01-07T21:09:47.876Z,99.99
2023-01-07T21:12:50.125Z,99.99
2023-01-07T21:15:52.437Z,99.99
2023-01-07T21:18:55.565Z,99.99
2023-01-07T21:21:57.808Z,99.99
2023-01-07T21:25:00.971Z,99.99
2023-01-07T21:28:03.613Z,99.99
2023-01-07T21:31:11.617Z,99.99
2023-01-07T21:34:15.464Z,99.92
2023-01-07T21:37:17.826Z,99.65
2023-01-07T21:40:20.517Z,99.26
2023-01-07T21:43:22.710Z,99.18
2023-01-07T21:46:25.088Z,98.98
2023-01-07T21:49:27.410Z,99.49
2023-01-07T21:52:29.694Z,99.84
2023-01-07T21:55:31.961Z,99.99
2023-01-07T21:58:36.827Z,99.99
2023-01-07T22:01:39.255Z,99.99
2023-01-07T22:04:41.780Z,99.99
2023-01-07T22:07:44.028Z,99.99
2023-01-07T22:10:49.189Z,99.99
2023-01-07T22:13:56.935Z,99.99
2023-01-07T22:17:02.253Z,99.99
2023-01-07T22:20:05.231Z,99.99
2023-01-07T22:23:08.094Z,99.99
2023-01-07T22:26:10.730Z,99.99
2023-01-07T22:29:13.091Z,99.99
2023-01-07T22:32:15.330Z,99.99
2023-01-07T22:35:18.492Z,99.99
2023-01-07T22:38:23.500Z,99.99
2023-01-07T22:41:28.203Z,99.99
2023-01-07T22:44:37.588Z,99.99
2023-01-07T22:47:44.878Z,99.99
2023-01-07T22:50:47.101Z,99.99
2023-01-07T22:53:51.147Z,99.99
2023-01-07T22:56:53.913Z,99.99
2023-01-07T22:59:58.209Z,99.99
2023-01-07T23:03:00.693Z,99.99
2023-01-07T23:06:02.953Z,99.99
2023-01-07T23:09:05.746Z,99.99
2023-01-07T23:12:11.067Z,99.99
2023-01-07T23:15:13.407Z,99.99
2023-01-07T23:18:15.788Z,99.99
2023-01-07T23:21:18.041Z,99.99
2023-01-07T23:24:21.108Z,99.99
2023-01-07T23:27:23.328Z,99.99
2023-01-07T23:30:25.558Z,99.99
2023-01-07T23:33:27.807Z,99.99
2023-01-07T23:36:30.066Z,99.99
2023-01-07T23:39:32.349Z,99.99
2023-01-07T23:42:35.452Z,99.99
2023-01-07T23:45:37.725Z,99.99
2023-01-07T23:48:39.986Z,99.99
2023-01-07T23:51:42.251Z,99.99
2023-01-07T23:54:44.627Z,99.99
2023-01-07T23:57:46.889Z,99.99
